Time;durP1;ratioP1;P1;durP2;ratioP2;P2;SDS_P1;SDS_P2;PMS_P1;PMS_P2;Temp;Humidity;BMP_temperature;BMP_pressure;BME280_temperature;BME280_humidity;BME280_pressure;Samples;Min_cycle;Max_cycle;Signal;HPM_P1;HPM_P2
2023/08/21 00:01:13;;;;;;;1.33;0.90;;;24.70;59.60;;;;;;4883465;29;20040;-77
2023/08/21 00:03:39;;;;;;;2.97;1.20;;;24.70;59.70;;;;;;4914547;29;20036;-77
2023/08/21 00:06:05;;;;;;;1.65;1.00;;;24.60;59.70;;;;;;4883658;29;20516;-77
2023/08/21 00:08:31;;;;;;;1.67;1.20;;;24.60;59.70;;;;;;4898776;29;20032;-77
2023/08/21 00:10:56;;;;;;;1.80;0.90;;;24.60;59.80;;;;;;4914644;29;20039;-77
2023/08/21 00:13:22;;;;;;;2.22;1.08;;;24.60;59.80;;;;;;4899774;29;20546;-77
2023/08/21 00:15:48;;;;;;;1.65;0.90;;;24.60;59.80;;;;;;4899585;29;20048;-78
2023/08/21 00:18:14;;;;;;;0.75;0.75;;;24.50;59.80;;;;;;4898671;29;20517;-79
2023/08/21 00:20:41;;;;;;;1.50;1.00;;;24.50;59.90;;;;;;4914372;29;20064;-77
2023/08/21 00:23:08;;;;;;;1.25;1.00;;;24.50;60.00;;;;;;4914247;29;20037;-77
2023/08/21 00:25:34;;;;;;;1.67;0.98;;;24.50;60.00;;;;;;4898437;29;20048;-77
2023/08/21 00:28:00;;;;;;;1.50;1.00;;;24.40;60.00;;;;;;4899424;29;20076;-77
2023/08/21 00:30:26;;;;;;;1.67;1.02;;;24.40;60.10;;;;;;4883372;29;20417;-77
2023/08/21 00:32:52;;;;;;;1.20;0.90;;;24.40;60.10;;;;;;4898193;29;20060;-77
2023/08/21 00:35:19;;;;;;;2.05;1.00;;;24.40;60.20;;;;;;4898173;29;20048;-76
2023/08/21 00:37:45;;;;;;;1.65;0.95;;;24.40;60.20;;;;;;4883556;29;20044;-76
2023/08/21 00:40:11;;;;;;;1.05;0.95;;;24.30;60.30;;;;;;4898282;29;20032;-77
2023/08/21 00:42:37;;;;;;;1.17;0.93;;;24.30;60.30;;;;;;4897977;29;20033;-77
2023/08/21 00:45:03;;;;;;;1.73;0.90;;;24.30;60.30;;;;;;4883191;29;20089;-76
2023/08/21 00:47:29;;;;;;;1.75;1.05;;;24.30;60.40;;;;;;4882408;29;20127;-78
2023/08/21 00:49:55;;;;;;;1.10;0.85;;;24.20;60.40;;;;;;4913664;29;20120;-77
2023/08/21 00:52:21;;;;;;;1.48;1.00;;;24.20;60.50;;;;;;4898122;29;20478;-77
2023/08/21 00:54:48;;;;;;;0.80;0.60;;;24.20;60.50;;;;;;4897632;29;20033;-76
2023/08/21 00:57:14;;;;;;;1.48;0.88;;;24.20;60.50;;;;;;4897713;29;20063;-77
2023/08/21 00:59:40;;;;;;;1.67;1.00;;;24.10;60.50;;;;;;4898011;29;20068;-77
2023/08/21 01:02:06;;;;;;;1.50;1.00;;;24.20;60.60;;;;;;4898936;29;20037;-76
2023/08/21 01:04:32;;;;;;;1.27;0.63;;;24.10;60.60;;;;;;4898087;29;20046;-77
2023/08/21 01:06:58;;;;;;;1.52;1.08;;;24.10;60.60;;;;;;4897899;29;20139;-77
2023/08/21 01:09:36;;;;;;;1.38;1.00;;;24.10;60.70;;;;;;4882343;29;20032;-77
2023/08/21 01:12:25;;;;;;;1.05;0.90;;;24.10;60.80;;;;;;4913529;29;20033;-77
2023/08/21 01:15:03;;;;;;;1.45;0.90;;;24.10;60.80;;;;;;4913069;29;20039;-77
2023/08/21 01:17:30;;;;;;;1.50;1.10;;;24.00;60.80;;;;;;4897677;29;20036;-77
2023/08/21 01:19:56;;;;;;;1.20;0.90;;;24.00;60.80;;;;;;4897875;29;20036;-77
2023/08/21 01:22:27;;;;;;;1.48;1.00;;;24.00;60.90;;;;;;4913339;29;20470;-77
2023/08/21 01:24:54;;;;;;;1.90;0.93;;;24.00;60.90;;;;;;4882839;29;20036;-77
2023/08/21 01:27:21;;;;;;;1.20;0.82;;;24.00;60.90;;;;;;4897784;29;20470;-77
2023/08/21 01:29:47;;;;;;;1.58;0.90;;;23.90;61.00;;;;;;4882893;29;20040;-77
2023/08/21 01:32:44;;;;;;;2.85;0.95;;;23.90;61.10;;;;;;4913269;29;20028;-77
2023/08/21 01:35:11;;;;;;;1.40;0.93;;;23.90;61.20;;;;;;4897462;29;20077;-77
2023/08/21 01:37:38;;;;;;;1.98;1.10;;;23.90;61.10;;;;;;4898056;29;20037;-77
2023/08/21 01:40:05;;;;;;;0.80;0.80;;;23.80;61.20;;;;;;4913048;29;20100;-77
2023/08/21 01:42:30;;;;;;;1.23;0.80;;;23.90;61.20;;;;;;4881456;29;20033;-77
2023/08/21 01:44:56;;;;;;;1.50;1.02;;;23.80;61.90;;;;;;4897377;29;20045;-77
2023/08/21 01:47:22;;;;;;;2.03;1.00;;;23.80;61.30;;;;;;4897200;29;20431;-78
2023/08/21 01:49:48;;;;;;;1.35;0.98;;;23.80;61.30;;;;;;4897455;29;20041;-77
2023/08/21 01:52:15;;;;;;;1.75;0.93;;;23.80;61.40;;;;;;4897261;29;20394;-77
2023/08/21 01:54:42;;;;;;;1.35;0.90;;;23.80;61.40;;;;;;4897321;29;20041;-77
2023/08/21 01:57:07;;;;;;;1.05;0.95;;;23.70;61.40;;;;;;4912727;29;20080;-77
2023/08/21 01:59:33;;;;;;;1.25;0.88;;;23.70;61.40;;;;;;4897793;29;20064;-76
2023/08/21 02:01:59;;;;;;;2.50;1.10;;;23.70;61.40;;;;;;4897039;29;20130;-77
2023/08/21 02:04:25;;;;;;;1.40;0.95;;;23.70;61.50;;;;;;4881624;29;20505;-77
2023/08/21 02:06:50;;;;;;;1.35;1.00;;;23.60;61.50;;;;;;4896903;29;20072;-78
2023/08/21 02:09:16;;;;;;;1.10;1.00;;;23.60;61.60;;;;;;4881586;29;20474;-77
2023/08/21 02:11:42;;;;;;;1.25;0.98;;;23.60;61.60;;;;;;4897127;29;20040;-77
2023/08/21 02:14:07;;;;;;;1.50;1.00;;;23.60;61.70;;;;;;4914121;29;20153;-78
2023/08/21 02:16:33;;;;;;;1.48;1.17;;;23.60;61.70;;;;;;4900834;29;20040;-77
2023/08/21 02:18:59;;;;;;;2.38;1.10;;;23.50;61.70;;;;;;4885019;29;20036;-77
2023/08/21 02:21:25;;;;;;;1.65;1.13;;;23.50;61.70;;;;;;4900829;29;20095;-77
2023/08/21 02:23:50;;;;;;;2.10;1.20;;;23.50;61.80;;;;;;4885940;29;20135;-78
2023/08/21 02:26:16;;;;;;;0.90;0.90;;;23.50;61.90;;;;;;4900779;29;20036;-77
2023/08/21 02:28:43;;;;;;;0.93;0.90;;;23.50;61.90;;;;;;4900457;29;20040;-77
2023/08/21 02:31:12;;;;;;;1.65;1.10;;;23.50;61.90;;;;;;4900870;29;20028;-77
2023/08/21 02:33:38;;;;;;;1.15;1.05;;;23.40;61.90;;;;;;4884881;29;20033;-77
2023/08/21 02:36:04;;;;;;;1.23;0.82;;;23.40;62.00;;;;;;4901824;29;20051;-77
2023/08/21 02:38:30;;;;;;;0.90;0.82;;;23.40;62.00;;;;;;4901765;29;20471;-77
2023/08/21 02:40:56;;;;;;;1.25;0.95;;;23.40;62.00;;;;;;4901603;29;20033;-78
2023/08/21 02:43:22;;;;;;;1.42;1.00;;;23.30;62.00;;;;;;4915898;29;20037;-79
2023/08/21 02:45:48;;;;;;;2.20;1.02;;;23.40;62.10;;;;;;4900343;29;20394;-77
2023/08/21 02:48:13;;;;;;;1.05;0.90;;;23.30;62.00;;;;;;4900644;29;20040;-77
2023/08/21 02:50:41;;;;;;;1.20;0.90;;;23.30;62.10;;;;;;4901040;29;20374;-77
2023/08/21 02:53:07;;;;;;;1.15;1.05;;;23.30;62.10;;;;;;4916120;29;20112;-77
2023/08/21 02:55:32;;;;;;;1.67;1.00;;;23.30;62.10;;;;;;4915877;29;20152;-77
2023/08/21 02:57:58;;;;;;;0.90;0.77;;;23.30;62.20;;;;;;4900075;29;20534;-76
2023/08/21 03:00:24;;;;;;;1.33;0.90;;;23.30;62.30;;;;;;4884562;29;20043;-77
2023/08/21 03:02:50;;;;;;;1.52;0.93;;;23.30;62.30;;;;;;4900051;29;20041;-77
2023/08/21 03:05:15;;;;;;;1.38;0.90;;;23.20;62.30;;;;;;4916563;29;20047;-77
2023/08/21 03:07:41;;;;;;;1.65;1.20;;;23.20;62.40;;;;;;4899968;29;20553;-78
2023/08/21 03:10:08;;;;;;;2.03;0.98;;;23.20;62.40;;;;;;4884644;29;20363;-77
2023/08/21 03:12:34;;;;;;;1.52;0.90;;;23.20;62.40;;;;;;4915534;29;20043;-77
2023/08/21 03:15:00;;;;;;;1.77;1.00;;;23.20;62.40;;;;;;4915456;29;20495;-77
2023/08/21 03:17:25;;;;;;;1.58;0.95;;;23.20;62.50;;;;;;4899842;29;20127;-77
2023/08/21 03:19:51;;;;;;;0.82;0.82;;;23.10;62.40;;;;;;4899742;29;20067;-77
2023/08/21 03:22:17;;;;;;;1.58;0.90;;;23.10;62.40;;;;;;4900412;29;20037;-77
2023/08/21 03:24:43;;;;;;;0.80;0.80;;;23.10;62.50;;;;;;4899524;29;20492;-76
2023/08/21 03:27:09;;;;;;;0.98;0.90;;;23.10;62.50;;;;;;4899548;29;20128;-78
2023/08/21 03:29:35;;;;;;;1.20;1.00;;;23.10;62.50;;;;;;4899852;29;20131;-77
2023/08/21 03:32:01;;;;;;;1.55;0.90;;;23.00;62.50;;;;;;4884081;29;20482;-77
2023/08/21 03:34:26;;;;;;;1.63;0.82;;;23.00;62.60;;;;;;4899620;29;20087;-77
2023/08/21 03:36:56;;;;;;;1.25;0.95;;;23.00;62.60;;;;;;4899633;29;20044;-77
2023/08/21 03:39:23;;;;;;;1.02;0.90;;;23.00;62.60;;;;;;4883705;29;20453;-77
2023/08/21 03:41:49;;;;;;;1.17;0.90;;;23.00;62.60;;;;;;4915017;29;20032;-77
2023/08/21 03:44:15;;;;;;;2.22;1.05;;;23.00;62.70;;;;;;4884602;29;20048;-77
2023/08/21 03:46:41;;;;;;;1.10;0.90;;;23.00;62.70;;;;;;4884299;29;20124;-77
2023/08/21 03:49:08;;;;;;;1.10;1.00;;;23.00;62.80;;;;;;4899488;29;20403;-77
2023/08/21 03:51:34;;;;;;;1.08;0.93;;;22.90;62.80;;;;;;4899136;29;20035;-77
2023/08/21 03:54:00;;;;;;;2.05;1.05;;;22.90;62.80;;;;;;4899176;29;20513;-77
2023/08/21 03:56:25;;;;;;;1.45;0.90;;;22.90;62.80;;;;;;4883494;29;20052;-77
2023/08/21 03:58:53;;;;;;;0.95;0.90;;;22.90;62.80;;;;;;4914274;29;20379;-77
2023/08/21 04:01:19;;;;;;;1.33;0.90;;;22.90;62.80;;;;;;4898957;29;20029;-77
2023/08/21 04:03:45;;;;;;;1.20;0.85;;;22.90;62.80;;;;;;4898924;29;20080;-76
2023/08/21 04:06:11;;;;;;;1.77;1.08;;;22.90;63.50;;;;;;4915179;29;20359;-78
2023/08/21 04:08:37;;;;;;;0.73;0.73;;;22.80;62.80;;;;;;4898723;29;20028;-77
2023/08/21 04:11:05;;;;;;;1.80;0.95;;;22.80;62.90;;;;;;4898844;29;20032;-77
2023/08/21 04:13:31;;;;;;;1.67;1.00;;;22.80;62.90;;;;;;4898820;29;20028;-78
2023/08/21 04:15:57;;;;;;;1.23;0.85;;;22.70;62.90;;;;;;4900060;29;20100;-78
2023/08/21 04:18:23;;;;;;;0.95;0.88;;;22.80;62.90;;;;;;4899976;29;20068;-78
2023/08/21 04:20:49;;;;;;;2.00;1.02;;;22.70;62.90;;;;;;4899272;29;20040;-78
2023/08/21 04:23:15;;;;;;;1.42;0.93;;;22.70;63.00;;;;;;4898542;29;20088;-78
2023/08/21 04:25:42;;;;;;;1.33;0.90;;;22.70;63.00;;;;;;4898577;29;20033;-77
2023/08/21 04:28:08;;;;;;;1.15;1.00;;;22.70;63.10;;;;;;4898482;29;20033;-77
2023/08/21 04:30:34;;;;;;;1.15;0.90;;;22.70;63.10;;;;;;4898159;29;20063;-77
2023/08/21 04:33:00;;;;;;;1.05;0.80;;;22.70;63.10;;;;;;4898317;29;20036;-77
2023/08/21 04:35:26;;;;;;;1.15;0.82;;;22.70;63.10;;;;;;4898058;29;20045;-77
2023/08/21 04:37:52;;;;;;;1.23;0.77;;;22.60;63.10;;;;;;4897861;29;20044;-77
2023/08/21 04:40:22;;;;;;;1.17;1.00;;;22.60;63.10;;;;;;4898506;29;20048;-78
2023/08/21 04:42:48;;;;;;;1.38;1.00;;;22.60;63.20;;;;;;4898165;29;20127;-77
2023/08/21 04:45:14;;;;;;;1.98;1.00;;;22.60;63.20;;;;;;4898111;29;20092;-78
2023/08/21 04:47:40;;;;;;;1.35;0.98;;;22.60;63.20;;;;;;4898416;29;20028;-78
2023/08/21 04:50:06;;;;;;;1.77;0.98;;;22.60;63.90;;;;;;4898270;29;20100;-77
2023/08/21 04:52:32;;;;;;;1.13;0.90;;;22.50;63.30;;;;;;4898031;29;20092;-77
2023/08/21 04:54:59;;;;;;;1.42;1.10;;;22.50;63.30;;;;;;4898031;29;20040;-77
2023/08/21 04:57:26;;;;;;;1.10;1.00;;;22.50;63.40;;;;;;4913604;29;20069;-77
2023/08/21 04:59:51;;;;;;;2.17;1.02;;;22.50;63.40;;;;;;4897969;29;20046;-77
2023/08/21 05:02:19;;;;;;;1.85;0.90;;;22.50;63.40;;;;;;4897743;29;20443;-77
2023/08/21 05:04:44;;;;;;;1.20;0.90;;;22.50;63.40;;;;;;4898460;29;20029;-77
2023/08/21 05:07:10;;;;;;;0.90;0.90;;;22.50;63.40;;;;;;4898011;29;20029;-77
2023/08/21 05:09:36;;;;;;;1.50;0.95;;;22.50;63.50;;;;;;4897775;29;20036;-77
2023/08/21 05:12:03;;;;;;;1.30;0.90;;;22.50;63.50;;;;;;4913265;29;20039;-77
2023/08/21 05:14:29;;;;;;;1.20;0.98;;;22.40;63.50;;;;;;4913473;29;20032;-78
2023/08/21 05:16:55;;;;;;;1.65;1.00;;;22.40;63.50;;;;;;4897471;29;20200;-80
2023/08/21 05:19:21;;;;;;;1.27;0.88;;;22.40;63.50;;;;;;4897711;29;20120;-85
2023/08/21 05:21:47;;;;;;;0.80;0.73;;;22.40;63.60;;;;;;4882175;29;20497;-77
2023/08/21 05:24:12;;;;;;;1.40;0.90;;;22.40;63.60;;;;;;4897548;29;20037;-77
2023/08/21 05:26:44;;;;;;;1.38;1.05;;;22.40;63.60;;;;;;4898274;29;20036;-80
2023/08/21 05:29:10;;;;;;;1.73;1.08;;;22.40;63.60;;;;;;4882729;29;20505;-77
2023/08/21 05:31:35;;;;;;;1.00;0.80;;;22.40;63.60;;;;;;4882171;29;20040;-79
2023/08/21 05:34:01;;;;;;;1.15;0.90;;;22.40;63.70;;;;;;4882615;29;20052;-78
2023/08/21 05:36:27;;;;;;;1.33;0.95;;;22.30;63.70;;;;;;4898518;29;20045;-77
2023/08/21 05:38:53;;;;;;;1.58;0.95;;;22.30;63.70;;;;;;4897355;29;20513;-77
2023/08/21 05:41:18;;;;;;;1.88;1.00;;;22.30;63.70;;;;;;4897181;29;20041;-77
2023/08/21 05:43:47;;;;;;;2.70;1.00;;;22.30;63.80;;;;;;4912828;29;20040;-77
2023/08/21 05:46:13;;;;;;;1.23;0.85;;;22.30;63.80;;;;;;4882004;29;20059;-81
2023/08/21 05:48:39;;;;;;;1.92;0.95;;;22.30;63.80;;;;;;4896241;29;20490;-77
2023/08/21 05:51:05;;;;;;;1.17;0.90;;;22.30;63.80;;;;;;4882390;29;20527;-79
2023/08/21 05:53:31;;;;;;;1.85;1.00;;;22.30;63.80;;;;;;4881766;29;20040;-75
2023/08/21 05:55:58;;;;;;;2.25;1.23;;;22.30;63.80;;;;;;4896745;29;20051;-76
2023/08/21 05:58:29;;;;;;;1.17;0.98;;;22.30;63.80;;;;;;4896987;29;20049;-77
2023/08/21 06:00:54;;;;;;;1.23;1.10;;;22.30;63.90;;;;;;4896817;29;20047;-77
2023/08/21 06:03:21;;;;;;;1.20;0.88;;;22.30;63.90;;;;;;4897897;29;20037;-76
2023/08/21 06:06:09;;;;;;;1.15;1.00;;;22.30;63.90;;;;;;4900222;29;20040;-77
2023/08/21 06:08:35;;;;;;;1.20;0.93;;;22.30;63.90;;;;;;4912980;29;20047;-78
2023/08/21 06:11:01;;;;;;;0.98;0.85;;;22.30;63.90;;;;;;4898912;29;20470;-78
2023/08/21 06:13:26;;;;;;;1.13;0.98;;;22.30;64.00;;;;;;4913072;29;20040;-78
2023/08/21 06:15:54;;;;;;;1.30;1.10;;;22.30;64.10;;;;;;4882561;29;20055;-77
2023/08/21 06:18:21;;;;;;;1.20;0.80;;;22.30;64.10;;;;;;4896850;29;20044;-77
2023/08/21 06:20:48;;;;;;;1.33;1.02;;;22.30;64.10;;;;;;4897117;29;20039;-77
2023/08/21 06:23:14;;;;;;;1.88;0.90;;;22.30;64.10;;;;;;4882245;29;20068;-77
2023/08/21 06:25:44;;;;;;;1.23;0.90;;;22.30;64.20;;;;;;4881812;29;20098;-77
2023/08/21 06:28:10;;;;;;;1.10;0.90;;;22.40;64.20;;;;;;4897711;29;20479;-77
2023/08/21 06:30:35;;;;;;;1.20;1.00;;;22.30;64.10;;;;;;4896592;29;20067;-77
2023/08/21 06:33:01;;;;;;;1.95;1.17;;;22.30;64.10;;;;;;4881315;29;20043;-77
2023/08/21 06:35:27;;;;;;;1.13;0.90;;;22.30;64.10;;;;;;4881394;29;20159;-79
2023/08/21 06:37:54;;;;;;;1.42;0.82;;;22.30;64.20;;;;;;4896777;29;20037;-77
2023/08/21 06:40:20;;;;;;;1.20;1.00;;;22.40;64.20;;;;;;4896833;29;20041;-75
2023/08/21 06:42:46;;;;;;;0.85;0.82;;;22.40;64.20;;;;;;4896835;29;20092;-78
2023/08/21 06:45:12;;;;;;;1.10;1.00;;;22.40;64.20;;;;;;4912411;29;20044;-78
2023/08/21 06:47:40;;;;;;;0.85;0.70;;;22.40;64.20;;;;;;4896459;29;20486;-80
2023/08/21 06:50:06;;;;;;;1.13;0.80;;;22.40;64.20;;;;;;4896723;29;20044;-79
2023/08/21 06:52:31;;;;;;;0.80;0.80;;;22.40;64.20;;;;;;4897068;29;20398;-77
2023/08/21 06:54:57;;;;;;;1.25;0.88;;;22.40;64.20;;;;;;4896668;29;20039;-78
2023/08/21 06:57:23;;;;;;;0.95;0.85;;;22.50;64.30;;;;;;4896499;29;20151;-77
2023/08/21 06:59:49;;;;;;;1.42;0.90;;;22.50;64.20;;;;;;4897309;29;20033;-77
2023/08/21 07:02:14;;;;;;;1.05;0.95;;;22.50;64.30;;;;;;4899833;29;20430;-77
2023/08/21 07:04:40;;;;;;;1.00;0.90;;;22.50;64.20;;;;;;4900102;29;20132;-78
2023/08/21 07:07:06;;;;;;;1.05;0.95;;;22.50;64.20;;;;;;4901277;29;20143;-77
2023/08/21 07:09:31;;;;;;;1.40;0.90;;;22.50;64.20;;;;;;4901006;29;20561;-77
2023/08/21 07:11:57;;;;;;;1.08;1.00;;;22.60;64.90;;;;;;4900203;29;20029;-77
2023/08/21 07:14:23;;;;;;;1.30;1.00;;;22.60;64.30;;;;;;4915376;29;20039;-77
2023/08/21 07:16:48;;;;;;;1.00;0.88;;;22.60;64.30;;;;;;4899699;29;20041;-77
2023/08/21 07:19:14;;;;;;;1.45;0.98;;;22.60;64.20;;;;;;4915824;29;20028;-77
2023/08/21 07:21:40;;;;;;;1.38;0.98;;;22.60;64.20;;;;;;4899946;29;20044;-78
2023/08/21 07:24:06;;;;;;;1.25;1.00;;;22.60;64.30;;;;;;4899731;29;20398;-77
2023/08/21 07:26:32;;;;;;;1.63;1.02;;;22.60;64.20;;;;;;4900740;29;20494;-77
2023/08/21 07:28:57;;;;;;;0.80;0.80;;;22.70;64.30;;;;;;4899560;29;20031;-77
2023/08/21 07:31:23;;;;;;;1.73;1.00;;;22.70;64.30;;;;;;4899936;29;20040;-77
2023/08/21 07:33:49;;;;;;;1.45;1.23;;;22.70;64.30;;;;;;4915441;29;20037;-78
2023/08/21 07:36:17;;;;;;;1.33;1.00;;;22.70;64.30;;;;;;4884067;29;20040;-78
2023/08/21 07:38:46;;;;;;;2.10;1.05;;;22.70;64.20;;;;;;4899433;29;20486;-77
2023/08/21 07:41:12;;;;;;;1.38;0.90;;;22.80;64.30;;;;;;4883902;29;20044;-78
2023/08/21 07:43:40;;;;;;;1.35;0.82;;;22.80;64.30;;;;;;4899463;29;20398;-78
2023/08/21 07:46:09;;;;;;;0.90;0.90;;;22.80;64.30;;;;;;4900587;29;20107;-77
2023/08/21 07:48:35;;;;;;;2.10;0.90;;;22.90;64.30;;;;;;4900766;29;20035;-77
2023/08/21 07:51:01;;;;;;;1.35;1.00;;;22.90;64.30;;;;;;4899243;29;20379;-77
2023/08/21 07:53:27;;;;;;;0.77;0.70;;;22.90;64.30;;;;;;4899231;29;20044;-77
2023/08/21 07:55:53;;;;;;;1.05;0.95;;;22.90;64.30;;;;;;4883472;29;20055;-78
2023/08/21 07:58:19;;;;;;;1.65;0.80;;;23.00;64.30;;;;;;4898822;29;20055;-77
2023/08/21 08:00:45;;;;;;;1.80;0.95;;;22.90;64.20;;;;;;4883879;29;20127;-77
2023/08/21 08:03:11;;;;;;;1.27;1.00;;;23.00;64.90;;;;;;4899065;29;20458;-78
2023/08/21 08:05:38;;;;;;;0.93;0.73;;;23.00;64.20;;;;;;4899046;29;20135;-77
2023/08/21 08:08:04;;;;;;;1.13;0.80;;;23.00;64.20;;;;;;4899721;29;20055;-78
2023/08/21 08:10:30;;;;;;;0.82;0.77;;;23.10;64.20;;;;;;4898913;29;20064;-77
2023/08/21 08:12:56;;;;;;;1.40;0.93;;;23.10;64.10;;;;;;4898657;29;20040;-77
2023/08/21 08:15:23;;;;;;;1.55;0.90;;;23.10;64.10;;;;;;4914312;29;20044;-77
2023/08/21 08:17:52;;;;;;;1.23;0.90;;;23.20;64.10;;;;;;4899141;29;20029;-77
2023/08/21 08:20:19;;;;;;;1.05;0.80;;;23.20;64.10;;;;;;4914803;29;20501;-79
2023/08/21 08:22:45;;;;;;;1.15;0.70;;;23.20;64.10;;;;;;4900413;29;20039;-79
2023/08/21 08:25:10;;;;;;;1.70;0.70;;;23.30;64.10;;;;;;4899582;29;20409;-75
2023/08/21 08:27:36;;;;;;;1.35;0.90;;;23.30;64.00;;;;;;4898721;29;20549;-76
2023/08/21 08:30:03;;;;;;;1.55;0.93;;;23.40;64.00;;;;;;4898462;29;20040;-75
2023/08/21 08:32:29;;;;;;;1.63;1.10;;;23.40;63.90;;;;;;4898213;29;20119;-76
2023/08/21 08:34:55;;;;;;;1.35;0.75;;;23.40;63.90;;;;;;4899816;29;20093;-76
2023/08/21 08:37:21;;;;;;;0.80;0.75;;;23.40;63.80;;;;;;4898348;29;20037;-75
2023/08/21 08:39:47;;;;;;;1.02;0.73;;;23.50;64.40;;;;;;4914232;29;20069;-76
2023/08/21 08:42:14;;;;;;;0.70;0.70;;;23.50;63.70;;;;;;4914413;29;20047;-76
2023/08/21 08:44:42;;;;;;;1.48;0.90;;;23.60;63.70;;;;;;4898615;29;20036;-76
2023/08/21 08:47:09;;;;;;;1.27;0.93;;;23.60;63.70;;;;;;4898364;29;20036;-76
2023/08/21 08:49:36;;;;;;;1.00;0.90;;;23.70;63.70;;;;;;4899439;29;20032;-75
2023/08/21 08:52:02;;;;;;;0.98;0.90;;;23.70;63.60;;;;;;4899947;29;20060;-76
2023/08/21 08:54:30;;;;;;;1.15;0.90;;;23.80;63.50;;;;;;4898204;29;20577;-77
2023/08/21 08:56:55;;;;;;;2.22;0.93;;;23.80;63.50;;;;;;4898781;29;20044;-76
2023/08/21 08:59:21;;;;;;;1.33;0.90;;;23.80;63.40;;;;;;4898026;29;20398;-76
2023/08/21 09:01:47;;;;;;;0.77;0.73;;;23.90;63.40;;;;;;4898026;29;20521;-76
2023/08/21 09:04:13;;;;;;;1.05;0.73;;;24.00;63.40;;;;;;4898189;29;20036;-77
2023/08/21 09:06:39;;;;;;;1.20;0.93;;;24.00;63.30;;;;;;4897748;29;20055;-76
2023/08/21 09:09:06;;;;;;;0.90;0.73;;;24.00;63.30;;;;;;4898628;29;20458;-76
2023/08/21 09:11:33;;;;;;;1.48;0.77;;;24.10;63.30;;;;;;4897361;29;20079;-76
2023/08/21 09:13:59;;;;;;;1.85;0.85;;;24.10;63.30;;;;;;4882181;29;20463;-76
2023/08/21 09:16:25;;;;;;;0.63;0.60;;;24.20;63.90;;;;;;4897371;29;20043;-75
2023/08/21 09:18:56;;;;;;;1.10;0.77;;;24.20;63.20;;;;;;4897656;29;20028;-76
2023/08/21 09:21:24;;;;;;;1.63;1.00;;;24.30;63.20;;;;;;4898034;29;20043;-76
2023/08/21 09:24:05;;;;;;;1.23;0.80;;;24.30;63.20;;;;;;4897420;29;20430;-77
2023/08/21 09:26:34;;;;;;;1.00;0.88;;;24.40;63.20;;;;;;4913160;29;20108;-76
2023/08/21 09:29:04;;;;;;;1.88;0.90;;;24.50;63.20;;;;;;4882390;29;20406;-76
2023/08/21 09:31:32;;;;;;;1.08;0.90;;;24.50;63.20;;;;;;4897810;29;20119;-76
2023/08/21 09:34:00;;;;;;;1.50;0.75;;;24.60;63.20;;;;;;4882067;29;20047;-76
2023/08/21 09:36:26;;;;;;;0.98;0.90;;;24.60;63.10;;;;;;4897394;29;20040;-76
2023/08/21 09:38:52;;;;;;;1.08;0.82;;;24.70;63.20;;;;;;4897707;29;20490;-76
2023/08/21 09:41:22;;;;;;;1.30;0.88;;;24.70;63.10;;;;;;4897437;29;20040;-76
2023/08/21 09:43:48;;;;;;;1.48;0.90;;;24.80;63.20;;;;;;4897256;29;20074;-77
2023/08/21 09:46:17;;;;;;;1.10;0.90;;;24.80;63.10;;;;;;4898474;29;20123;-76
2023/08/21 09:48:47;;;;;;;1.10;0.90;;;24.90;63.10;;;;;;4897119;29;20037;-77
2023/08/21 09:51:13;;;;;;;1.58;0.98;;;25.00;63.70;;;;;;4897540;29;20081;-76
2023/08/21 09:53:40;;;;;;;1.15;0.65;;;25.10;63.00;;;;;;4899292;29;20036;-75
2023/08/21 09:56:07;;;;;;;1.13;0.73;;;25.10;63.30;;;;;;4897131;29;20104;-76
2023/08/21 09:58:34;;;;;;;1.20;0.90;;;25.20;62.80;;;;;;4896958;29;20087;-76
2023/08/21 10:01:00;;;;;;;1.13;0.70;;;25.30;62.80;;;;;;4897147;29;20103;-76
2023/08/21 10:03:27;;;;;;;0.95;0.75;;;25.30;62.70;;;;;;4897079;29;20039;-76
2023/08/21 10:05:57;;;;;;;1.48;1.00;;;25.40;62.70;;;;;;4897331;29;20032;-77
2023/08/21 10:08:25;;;;;;;1.45;0.70;;;25.40;62.70;;;;;;4896999;29;20025;-77
2023/08/21 10:10:51;;;;;;;2.35;0.65;;;25.50;62.60;;;;;;4912884;29;20037;-78
2023/08/21 10:13:18;;;;;;;1.55;0.80;;;25.60;62.70;;;;;;4897891;29;20025;-79
2023/08/21 10:15:44;;;;;;;0.82;0.70;;;25.60;62.60;;;;;;4897037;29;20045;-80
2023/08/21 10:18:24;;;;;;;1.08;0.70;;;25.70;62.60;;;;;;4897127;29;20110;-79
2023/08/21 10:20:51;;;;;;;0.70;0.60;;;25.80;62.50;;;;;;4897131;29;20509;-77
2023/08/21 10:23:29;;;;;;;1.13;0.63;;;25.90;62.40;;;;;;4896949;29;20064;-78
2023/08/21 10:26:00;;;;;;;1.58;0.80;;;26.00;62.50;;;;;;4897268;29;20466;-78
2023/08/21 10:28:41;;;;;;;1.10;0.90;;;26.10;62.40;;;;;;4897111;29;20157;-79
2023/08/21 10:31:35;;;;;;;0.77;0.60;;;26.20;62.30;;;;;;4898171;29;20020;-77
2023/08/21 10:34:04;;;;;;;0.98;0.77;;;26.20;62.10;;;;;;4896933;29;20103;-77
2023/08/21 10:37:10;;;;;;;1.10;0.77;;;26.40;62.10;;;;;;4915922;29;20037;-78
2023/08/21 10:39:39;;;;;;;1.52;0.93;;;26.40;62.10;;;;;;4896427;29;20080;-78
2023/08/21 10:42:14;;;;;;;1.23;0.90;;;26.50;61.90;;;;;;4900441;29;20056;-78
2023/08/21 10:44:48;;;;;;;0.75;0.60;;;26.60;61.90;;;;;;4900394;29;20036;-77
2023/08/21 10:47:25;;;;;;;0.73;0.70;;;26.70;61.90;;;;;;4901136;29;20036;-77
2023/08/21 10:49:59;;;;;;;1.30;0.68;;;26.70;61.90;;;;;;4900647;29;20035;-76
2023/08/21 10:52:27;;;;;;;1.08;0.65;;;26.80;61.90;;;;;;4900145;29;20037;-76
2023/08/21 10:54:55;;;;;;;1.17;0.68;;;26.80;61.90;;;;;;4916014;29;20534;-76
2023/08/21 10:57:23;;;;;;;1.88;1.00;;;26.90;61.90;;;;;;4899832;29;20129;-76
2023/08/21 10:59:54;;;;;;;0.90;0.70;;;27.00;62.00;;;;;;4900266;29;20398;-75
2023/08/21 11:02:20;;;;;;;1.52;0.77;;;27.00;62.10;;;;;;4916017;29;20032;-76
2023/08/21 11:04:46;;;;;;;1.67;0.70;;;27.10;62.20;;;;;;4900165;29;20029;-76
2023/08/21 11:07:12;;;;;;;1.10;0.70;;;27.10;62.30;;;;;;4901050;29;20167;-76
2023/08/21 11:09:38;;;;;;;1.85;1.08;;;27.20;62.50;;;;;;4900872;29;20068;-76
2023/08/21 11:12:09;;;;;;;1.08;0.77;;;27.20;62.60;;;;;;4901027;29;20051;-76
2023/08/21 11:14:35;;;;;;;1.13;0.80;;;27.30;62.90;;;;;;4915863;29;20033;-76
2023/08/21 11:17:01;;;;;;;1.00;0.90;;;27.30;63.00;;;;;;4900011;29;20474;-76
2023/08/21 11:19:27;;;;;;;1.00;0.65;;;27.30;63.10;;;;;;4884611;29;20040;-76
2023/08/21 11:21:52;;;;;;;1.65;0.82;;;27.40;63.40;;;;;;4900150;29;20368;-76
2023/08/21 11:24:18;;;;;;;1.67;0.80;;;27.40;63.60;;;;;;4883923;29;20498;-76
2023/08/21 11:26:44;;;;;;;1.00;0.88;;;27.40;63.80;;;;;;4899948;29;20120;-76
2023/08/21 11:29:09;;;;;;;1.00;0.75;;;27.40;64.10;;;;;;4900933;29;20072;-76
2023/08/21 11:31:36;;;;;;;0.70;0.70;;;27.40;64.30;;;;;;4884896;29;20040;-76
2023/08/21 11:34:01;;;;;;;1.25;0.75;;;27.50;64.60;;;;;;4899430;29;20101;-76
2023/08/21 11:36:27;;;;;;;0.82;0.77;;;27.50;64.80;;;;;;4899538;29;20132;-76
2023/08/21 11:39:01;;;;;;;2.03;0.82;;;27.50;65.00;;;;;;4899942;29;20054;-76
2023/08/21 11:41:26;;;;;;;1.27;0.95;;;27.60;65.40;;;;;;4899590;29;20036;-76
2023/08/21 11:43:52;;;;;;;2.53;0.98;;;27.60;65.50;;;;;;4884225;29;20029;-76
2023/08/21 11:46:18;;;;;;;1.30;0.82;;;27.60;65.50;;;;;;4899709;29;20337;-76
2023/08/21 11:48:45;;;;;;;1.02;0.70;;;27.60;65.60;;;;;;4899236;29;20065;-76
2023/08/21 11:51:11;;;;;;;1.67;0.90;;;27.60;65.70;;;;;;4884268;29;20096;-76
2023/08/21 11:53:41;;;;;;;1.65;0.93;;;27.60;65.80;;;;;;4900778;29;20043;-76
2023/08/21 11:56:15;;;;;;;1.73;0.90;;;27.70;66.00;;;;;;4898780;29;20045;-76
2023/08/21 11:58:42;;;;;;;0.75;0.63;;;27.70;66.10;;;;;;4900434;29;20056;-76
2023/08/21 12:01:08;;;;;;;2.05;1.10;;;27.70;66.00;;;;;;4900031;29;20033;-76
2023/08/21 12:03:38;;;;;;;1.83;0.90;;;27.70;66.10;;;;;;4884344;29;20037;-76
2023/08/21 12:06:08;;;;;;;1.30;0.73;;;27.70;66.30;;;;;;4900257;29;20108;-76
2023/08/21 12:08:34;;;;;;;1.38;0.82;;;27.70;66.30;;;;;;4899950;29;20027;-77
2023/08/21 12:11:00;;;;;;;1.10;0.80;;;27.70;66.30;;;;;;4898919;29;20587;-76
2023/08/21 12:13:26;;;;;;;1.13;0.90;;;27.80;66.30;;;;;;4899281;29;20136;-76
2023/08/21 12:15:51;;;;;;;1.58;0.85;;;27.80;66.30;;;;;;4914536;29;20490;-76
2023/08/21 12:18:17;;;;;;;0.80;0.80;;;27.80;66.30;;;;;;4900422;29;20036;-76
2023/08/21 12:20:43;;;;;;;1.30;0.82;;;27.80;66.30;;;;;;4883147;29;20072;-76
2023/08/21 12:23:08;;;;;;;1.38;0.80;;;27.80;66.30;;;;;;4899288;29;20456;-76
2023/08/21 12:25:34;;;;;;;0.93;0.70;;;27.80;66.30;;;;;;4899223;29;20132;-76
2023/08/21 12:28:00;;;;;;;1.45;0.90;;;27.80;66.20;;;;;;4899604;29;20035;-77
2023/08/21 12:30:25;;;;;;;1.50;0.93;;;27.80;66.10;;;;;;4898656;29;20168;-78
2023/08/21 12:32:51;;;;;;;0.93;0.80;;;27.80;66.00;;;;;;4898502;29;20060;-77
2023/08/21 12:35:17;;;;;;;1.80;0.98;;;27.80;65.90;;;;;;4899611;29;20032;-78
2023/08/21 12:37:43;;;;;;;1.13;0.90;;;27.90;65.90;;;;;;4914517;29;20043;-77
2023/08/21 12:40:09;;;;;;;1.30;0.93;;;27.90;65.80;;;;;;4898418;29;20033;-77
2023/08/21 12:42:35;;;;;;;0.73;0.73;;;27.90;65.80;;;;;;4883528;29;20033;-80
2023/08/21 12:45:00;;;;;;;0.90;0.80;;;27.90;65.60;;;;;;4914084;29;20036;-77
2023/08/21 12:47:26;;;;;;;1.23;0.70;;;27.90;65.50;;;;;;4898430;29;20394;-77